sensor_id;sensor_type;location;lat;lon;timestamp;temperature;humidity
21561;DHT22;10941;53.590;9.960;2022-10-16T00:01:06;15.70;99.90
21561;DHT22;10941;53.590;9.960;2022-10-16T00:03:32;15.70;99.90
21561;DHT22;10941;53.590;9.960;2022-10-16T00:05:58;15.70;99.90
21561;DHT22;10941;53.590;9.960;2022-10-16T00:08:24;15.70;99.90
21561;DHT22;10941;53.590;9.960;2022-10-16T00:10:50;15.70;99.90
21561;DHT22;10941;53.590;9.960;2022-10-16T00:13:15;15.70;99.90
21561;DHT22;10941;53.590;9.960;2022-10-16T00:15:43;15.60;99.90
21561;DHT22;10941;53.590;9.960;2022-10-16T00:18:09;15.60;99.90
21561;DHT22;10941;53.590;9.960;2022-10-16T00:20:35;15.60;99.90
21561;DHT22;10941;53.590;9.960;2022-10-16T00:23:03;15.60;99.90
21561;DHT22;10941;53.590;9.960;2022-10-16T00:25:28;15.60;99.90
21561;DHT22;10941;53.590;9.960;2022-10-16T00:27:54;15.60;99.90
21561;DHT22;10941;53.590;9.960;2022-10-16T00:30:20;15.60;99.90
21561;DHT22;10941;53.590;9.960;2022-10-16T00:32:45;15.50;99.90
21561;DHT22;10941;53.590;9.960;2022-10-16T00:35:11;15.50;99.90
21561;DHT22;10941;53.590;9.960;2022-10-16T00:37:37;15.50;99.90
21561;DHT22;10941;53.590;9.960;2022-10-16T00:40:02;15.60;99.90
21561;DHT22;10941;53.590;9.960;2022-10-16T00:42:28;15.50;99.90
21561;DHT22;10941;53.590;9.960;2022-10-16T00:44:55;15.50;99.90
21561;DHT22;10941;53.590;9.960;2022-10-16T00:47:40;15.50;99.90
21561;DHT22;10941;53.590;9.960;2022-10-16T00:50:08;15.50;99.90
21561;DHT22;10941;53.590;9.960;2022-10-16T00:52:35;15.50;99.90
21561;DHT22;10941;53.590;9.960;2022-10-16T00:55:02;15.50;99.90
21561;DHT22;10941;53.590;9.960;2022-10-16T00:57:28;15.50;99.90
21561;DHT22;10941;53.590;9.960;2022-10-16T00:59:54;15.50;99.90
21561;DHT22;10941;53.590;9.960;2022-10-16T01:02:20;15.50;99.90
21561;DHT22;10941;53.590;9.960;2022-10-16T01:04:50;15.50;99.90
21561;DHT22;10941;53.590;9.960;2022-10-16T01:09:56;15.50;99.90
21561;DHT22;10941;53.590;9.960;2022-10-16T01:12:38;15.50;99.90
21561;DHT22;10941;53.590;9.960;2022-10-16T01:15:10;15.50;99.90
21561;DHT22;10941;53.590;9.960;2022-10-16T01:22:38;15.40;99.90
21561;DHT22;10941;53.590;9.960;2022-10-16T01:25:05;15.40;99.90
21561;DHT22;10941;53.590;9.960;2022-10-16T01:27:34;15.40;99.90
21561;DHT22;10941;53.590;9.960;2022-10-16T01:30:07;15.40;99.90
21561;DHT22;10941;53.590;9.960;2022-10-16T01:32:37;15.40;99.90
21561;DHT22;10941;53.590;9.960;2022-10-16T01:37:35;15.30;99.90
21561;DHT22;10941;53.590;9.960;2022-10-16T01:40:02;15.30;99.90
21561;DHT22;10941;53.590;9.960;2022-10-16T01:42:33;15.20;99.90
21561;DHT22;10941;53.590;9.960;2022-10-16T01:45:00;15.20;99.90
21561;DHT22;10941;53.590;9.960;2022-10-16T01:47:26;15.10;99.90
21561;DHT22;10941;53.590;9.960;2022-10-16T01:49:53;15.20;99.90
21561;DHT22;10941;53.590;9.960;2022-10-16T01:52:21;15.20;99.90
21561;DHT22;10941;53.590;9.960;2022-10-16T01:54:49;15.10;99.90
21561;DHT22;10941;53.590;9.960;2022-10-16T01:57:17;15.10;99.90
21561;DHT22;10941;53.590;9.960;2022-10-16T01:59:44;15.10;99.90
21561;DHT22;10941;53.590;9.960;2022-10-16T02:02:10;15.10;99.90
21561;DHT22;10941;53.590;9.960;2022-10-16T02:04:38;15.00;99.90
21561;DHT22;10941;53.590;9.960;2022-10-16T02:07:05;15.00;99.90
21561;DHT22;10941;53.590;9.960;2022-10-16T02:09:34;15.00;99.90
21561;DHT22;10941;53.590;9.960;2022-10-16T02:12:03;15.00;99.90
21561;DHT22;10941;53.590;9.960;2022-10-16T02:14:32;15.00;99.90
21561;DHT22;10941;53.590;9.960;2022-10-16T02:16:58;15.00;99.90
21561;DHT22;10941;53.590;9.960;2022-10-16T02:19:24;15.00;99.90
21561;DHT22;10941;53.590;9.960;2022-10-16T02:22:00;15.00;99.90
21561;DHT22;10941;53.590;9.960;2022-10-16T02:24:35;15.00;99.90
21561;DHT22;10941;53.590;9.960;2022-10-16T02:27:07;15.00;99.90
21561;DHT22;10941;53.590;9.960;2022-10-16T02:29:36;14.90;99.90
21561;DHT22;10941;53.590;9.960;2022-10-16T02:32:04;14.90;99.90
21561;DHT22;10941;53.590;9.960;2022-10-16T02:34:33;14.90;99.90
21561;DHT22;10941;53.590;9.960;2022-10-16T02:36:59;14.90;99.90
21561;DHT22;10941;53.590;9.960;2022-10-16T02:39:27;14.80;99.90
21561;DHT22;10941;53.590;9.960;2022-10-16T02:41:53;14.90;99.90
21561;DHT22;10941;53.590;9.960;2022-10-16T02:44:19;14.90;99.90
21561;DHT22;10941;53.590;9.960;2022-10-16T02:46:45;14.80;99.90
21561;DHT22;10941;53.590;9.960;2022-10-16T02:49:10;14.90;99.90
21561;DHT22;10941;53.590;9.960;2022-10-16T02:51:36;14.80;99.90
21561;DHT22;10941;53.590;9.960;2022-10-16T02:54:02;14.80;99.90
21561;DHT22;10941;53.590;9.960;2022-10-16T02:56:27;14.80;99.90
21561;DHT22;10941;53.590;9.960;2022-10-16T02:58:53;14.80;99.90
21561;DHT22;10941;53.590;9.960;2022-10-16T03:01:19;14.80;99.90
21561;DHT22;10941;53.590;9.960;2022-10-16T03:03:45;14.70;99.90
21561;DHT22;10941;53.590;9.960;2022-10-16T03:06:10;14.70;99.90
21561;DHT22;10941;53.590;9.960;2022-10-16T03:08:36;14.70;99.90
21561;DHT22;10941;53.590;9.960;2022-10-16T03:11:01;14.70;99.90
21561;DHT22;10941;53.590;9.960;2022-10-16T03:13:27;14.70;99.90
21561;DHT22;10941;53.590;9.960;2022-10-16T03:15:53;14.70;99.90
21561;DHT22;10941;53.590;9.960;2022-10-16T03:18:18;14.60;99.90
21561;DHT22;10941;53.590;9.960;2022-10-16T03:20:44;14.60;99.90
21561;DHT22;10941;53.590;9.960;2022-10-16T03:23:09;14.60;99.90
21561;DHT22;10941;53.590;9.960;2022-10-16T03:25:35;14.60;99.90
21561;DHT22;10941;53.590;9.960;2022-10-16T03:28:01;14.60;99.90
21561;DHT22;10941;53.590;9.960;2022-10-16T03:30:27;14.60;99.90
21561;DHT22;10941;53.590;9.960;2022-10-16T03:32:52;14.50;99.90
21561;DHT22;10941;53.590;9.960;2022-10-16T03:35:19;14.50;99.90
21561;DHT22;10941;53.590;9.960;2022-10-16T03:37:45;14.50;99.90
21561;DHT22;10941;53.590;9.960;2022-10-16T03:40:11;14.50;99.90
21561;DHT22;10941;53.590;9.960;2022-10-16T03:42:36;14.50;99.90
21561;DHT22;10941;53.590;9.960;2022-10-16T03:45:03;14.50;99.90
21561;DHT22;10941;53.590;9.960;2022-10-16T03:47:30;14.50;99.90
21561;DHT22;10941;53.590;9.960;2022-10-16T03:49:56;14.50;99.90
21561;DHT22;10941;53.590;9.960;2022-10-16T03:52:21;14.50;99.90
21561;DHT22;10941;53.590;9.960;2022-10-16T03:54:47;14.50;99.90
21561;DHT22;10941;53.590;9.960;2022-10-16T03:57:12;14.50;99.90
21561;DHT22;10941;53.590;9.960;2022-10-16T03:59:38;14.50;99.90
21561;DHT22;10941;53.590;9.960;2022-10-16T04:02:04;14.50;99.90
21561;DHT22;10941;53.590;9.960;2022-10-16T04:04:29;14.50;99.90
21561;DHT22;10941;53.590;9.960;2022-10-16T04:06:55;14.50;99.90
21561;DHT22;10941;53.590;9.960;2022-10-16T04:09:20;14.50;99.90
21561;DHT22;10941;53.590;9.960;2022-10-16T04:11:46;14.60;99.90
21561;DHT22;10941;53.590;9.960;2022-10-16T04:14:11;14.50;99.90
21561;DHT22;10941;53.590;9.960;2022-10-16T04:16:39;14.50;99.90
21561;DHT22;10941;53.590;9.960;2022-10-16T04:19:05;14.50;99.90
21561;DHT22;10941;53.590;9.960;2022-10-16T04:21:30;14.50;99.90
21561;DHT22;10941;53.590;9.960;2022-10-16T04:23:56;14.50;99.90
21561;DHT22;10941;53.590;9.960;2022-10-16T04:26:21;14.50;99.90
21561;DHT22;10941;53.590;9.960;2022-10-16T04:28:47;14.50;99.90
21561;DHT22;10941;53.590;9.960;2022-10-16T04:31:14;14.50;99.90
21561;DHT22;10941;53.590;9.960;2022-10-16T04:33:41;14.50;99.90
21561;DHT22;10941;53.590;9.960;2022-10-16T04:36:08;14.50;99.90
21561;DHT22;10941;53.590;9.960;2022-10-16T04:38:33;14.50;99.90
21561;DHT22;10941;53.590;9.960;2022-10-16T04:40:59;14.50;99.90
21561;DHT22;10941;53.590;9.960;2022-10-16T04:43:25;14.50;99.90
21561;DHT22;10941;53.590;9.960;2022-10-16T04:45:52;14.50;99.90
21561;DHT22;10941;53.590;9.960;2022-10-16T04:48:18;14.50;99.90
21561;DHT22;10941;53.590;9.960;2022-10-16T04:50:44;14.50;99.90
21561;DHT22;10941;53.590;9.960;2022-10-16T04:53:09;14.50;99.90
21561;DHT22;10941;53.590;9.960;2022-10-16T04:55:35;14.50;99.90
21561;DHT22;10941;53.590;9.960;2022-10-16T04:58:00;14.50;99.90
21561;DHT22;10941;53.590;9.960;2022-10-16T05:00:26;14.40;99.90
21561;DHT22;10941;53.590;9.960;2022-10-16T05:02:52;14.40;99.90
21561;DHT22;10941;53.590;9.960;2022-10-16T05:05:17;14.40;99.90
21561;DHT22;10941;53.590;9.960;2022-10-16T05:07:45;14.40;99.90
21561;DHT22;10941;53.590;9.960;2022-10-16T05:10:10;14.40;99.90
21561;DHT22;10941;53.590;9.960;2022-10-16T05:12:36;14.40;99.90
21561;DHT22;10941;53.590;9.960;2022-10-16T05:15:02;14.40;99.90
21561;DHT22;10941;53.590;9.960;2022-10-16T05:17:28;14.40;99.90
21561;DHT22;10941;53.590;9.960;2022-10-16T05:19:53;14.40;99.90
21561;DHT22;10941;53.590;9.960;2022-10-16T05:22:19;14.40;99.90
21561;DHT22;10941;53.590;9.960;2022-10-16T05:24:45;14.40;99.90
21561;DHT22;10941;53.590;9.960;2022-10-16T05:27:10;14.40;99.90
21561;DHT22;10941;53.590;9.960;2022-10-16T05:29:36;14.40;99.90
21561;DHT22;10941;53.590;9.960;2022-10-16T05:32:02;14.40;99.90
21561;DHT22;10941;53.590;9.960;2022-10-16T05:34:28;14.40;99.90
21561;DHT22;10941;53.590;9.960;2022-10-16T05:36:53;14.40;99.90
21561;DHT22;10941;53.590;9.960;2022-10-16T05:39:19;14.40;99.90
21561;DHT22;10941;53.590;9.960;2022-10-16T05:41:45;14.40;99.90
21561;DHT22;10941;53.590;9.960;2022-10-16T05:44:12;14.40;99.90
21561;DHT22;10941;53.590;9.960;2022-10-16T05:46:38;14.30;99.90
21561;DHT22;10941;53.590;9.960;2022-10-16T05:49:04;14.40;99.90
21561;DHT22;10941;53.590;9.960;2022-10-16T05:51:29;14.40;99.90
21561;DHT22;10941;53.590;9.960;2022-10-16T05:53:55;14.40;99.90
21561;DHT22;10941;53.590;9.960;2022-10-16T05:56:20;14.40;99.90
21561;DHT22;10941;53.590;9.960;2022-10-16T05:58:46;14.40;99.90
21561;DHT22;10941;53.590;9.960;2022-10-16T06:01:13;14.40;99.90
21561;DHT22;10941;53.590;9.960;2022-10-16T06:03:39;14.50;99.90
21561;DHT22;10941;53.590;9.960;2022-10-16T06:06:12;14.50;99.90
21561;DHT22;10941;53.590;9.960;2022-10-16T06:08:37;14.50;99.90
21561;DHT22;10941;53.590;9.960;2022-10-16T06:11:04;14.50;99.90
21561;DHT22;10941;53.590;9.960;2022-10-16T06:13:30;14.50;99.90
21561;DHT22;10941;53.590;9.960;2022-10-16T06:15:57;14.50;99.90
21561;DHT22;10941;53.590;9.960;2022-10-16T06:18:23;14.50;99.90
21561;DHT22;10941;53.590;9.960;2022-10-16T06:20:48;14.60;99.90
21561;DHT22;10941;53.590;9.960;2022-10-16T06:23:14;14.50;99.90
21561;DHT22;10941;53.590;9.960;2022-10-16T06:25:39;14.60;99.90
21561;DHT22;10941;53.590;9.960;2022-10-16T06:28:05;14.60;99.90
21561;DHT22;10941;53.590;9.960;2022-10-16T06:30:31;14.60;99.90
21561;DHT22;10941;53.590;9.960;2022-10-16T06:32:56;14.60;99.90
21561;DHT22;10941;53.590;9.960;2022-10-16T06:35:22;14.50;99.90
21561;DHT22;10941;53.590;9.960;2022-10-16T06:37:48;14.60;99.90
21561;DHT22;10941;53.590;9.960;2022-10-16T06:40:13;14.50;99.90
21561;DHT22;10941;53.590;9.960;2022-10-16T06:42:40;14.60;99.90
21561;DHT22;10941;53.590;9.960;2022-10-16T06:45:06;14.50;99.90
21561;DHT22;10941;53.590;9.960;2022-10-16T06:47:31;14.60;99.90
21561;DHT22;10941;53.590;9.960;2022-10-16T06:49:57;14.60;99.90
21561;DHT22;10941;53.590;9.960;2022-10-16T06:52:23;14.60;99.90
21561;DHT22;10941;53.590;9.960;2022-10-16T06:54:49;14.60;99.90
21561;DHT22;10941;53.590;9.960;2022-10-16T06:57:17;14.60;99.90
21561;DHT22;10941;53.590;9.960;2022-10-16T06:59:42;14.70;99.90
21561;DHT22;10941;53.590;9.960;2022-10-16T07:02:08;14.70;99.90
21561;DHT22;10941;53.590;9.960;2022-10-16T07:04:35;14.70;99.90
21561;DHT22;10941;53.590;9.960;2022-10-16T07:07:01;14.70;99.90
21561;DHT22;10941;53.590;9.960;2022-10-16T07:09:26;14.70;99.90
21561;DHT22;10941;53.590;9.960;2022-10-16T07:11:52;14.80;99.90
21561;DHT22;10941;53.590;9.960;2022-10-16T07:14:19;14.80;99.90
21561;DHT22;10941;53.590;9.960;2022-10-16T07:16:45;14.80;99.90
21561;DHT22;10941;53.590;9.960;2022-10-16T07:19:10;14.90;99.90
21561;DHT22;10941;53.590;9.960;2022-10-16T07:21:37;15.00;99.90
21561;DHT22;10941;53.590;9.960;2022-10-16T07:24:07;15.00;99.90
21561;DHT22;10941;53.590;9.960;2022-10-16T07:26:36;15.00;99.90
21561;DHT22;10941;53.590;9.960;2022-10-16T07:29:02;15.00;99.90
21561;DHT22;10941;53.590;9.960;2022-10-16T07:31:28;15.10;99.90
21561;DHT22;10941;53.590;9.960;2022-10-16T07:33:54;15.10;99.90
21561;DHT22;10941;53.590;9.960;2022-10-16T07:36:20;15.10;99.90
21561;DHT22;10941;53.590;9.960;2022-10-16T07:38:46;15.20;99.90
21561;DHT22;10941;53.590;9.960;2022-10-16T07:41:13;15.10;99.90
21561;DHT22;10941;53.590;9.960;2022-10-16T07:43:39;15.10;99.90
21561;DHT22;10941;53.590;9.960;2022-10-16T07:46:04;15.20;99.90
21561;DHT22;10941;53.590;9.960;2022-10-16T07:48:31;15.20;99.90
21561;DHT22;10941;53.590;9.960;2022-10-16T07:51:04;15.30;99.90
21561;DHT22;10941;53.590;9.960;2022-10-16T07:53:31;15.30;99.90
21561;DHT22;10941;53.590;9.960;2022-10-16T07:55:57;15.40;99.90
21561;DHT22;10941;53.590;9.960;2022-10-16T07:58:23;15.40;99.90
21561;DHT22;10941;53.590;9.960;2022-10-16T08:00:49;15.40;99.90
21561;DHT22;10941;53.590;9.960;2022-10-16T08:03:15;15.40;99.90
21561;DHT22;10941;53.590;9.960;2022-10-16T08:05:41;15.50;99.90
21561;DHT22;10941;53.590;9.960;2022-10-16T08:08:06;15.50;99.90
21561;DHT22;10941;53.590;9.960;2022-10-16T08:10:32;15.50;99.90
21561;DHT22;10941;53.590;9.960;2022-10-16T08:12:57;15.50;99.90
21561;DHT22;10941;53.590;9.960;2022-10-16T08:15:24;15.40;99.90
21561;DHT22;10941;53.590;9.960;2022-10-16T08:17:59;15.50;99.90
21561;DHT22;10941;53.590;9.960;2022-10-16T08:20:26;15.50;99.90
21561;DHT22;10941;53.590;9.960;2022-10-16T08:22:52;15.50;99.90
21561;DHT22;10941;53.590;9.960;2022-10-16T08:25:18;15.50;99.90
21561;DHT22;10941;53.590;9.960;2022-10-16T08:27:44;15.50;99.90
21561;DHT22;10941;53.590;9.960;2022-10-16T08:30:10;15.50;99.90
21561;DHT22;10941;53.590;9.960;2022-10-16T08:32:36;15.50;99.90
21561;DHT22;10941;53.590;9.960;2022-10-16T08:35:01;15.50;99.90
21561;DHT22;10941;53.590;9.960;2022-10-16T08:37:31;15.50;99.90
21561;DHT22;10941;53.590;9.960;2022-10-16T08:39:59;15.50;99.90
21561;DHT22;10941;53.590;9.960;2022-10-16T08:50:11;15.70;99.90
21561;DHT22;10941;53.590;9.960;2022-10-16T08:52:41;15.70;99.90
21561;DHT22;10941;53.590;9.960;2022-10-16T08:55:17;15.70;99.90
21561;DHT22;10941;53.590;9.960;2022-10-16T08:57:44;15.70;99.90
21561;DHT22;10941;53.590;9.960;2022-10-16T09:00:12;15.80;99.90
21561;DHT22;10941;53.590;9.960;2022-10-16T09:02:38;15.80;99.90
21561;DHT22;10941;53.590;9.960;2022-10-16T09:10:04;15.90;99.90
21561;DHT22;10941;53.590;9.960;2022-10-16T09:17:59;16.00;99.90
21561;DHT22;10941;53.590;9.960;2022-10-16T09:22:56;16.20;99.90
21561;DHT22;10941;53.590;9.960;2022-10-16T09:25:26;16.30;99.90
21561;DHT22;10941;53.590;9.960;2022-10-16T09:27:52;16.40;99.90
21561;DHT22;10941;53.590;9.960;2022-10-16T09:30:19;16.50;99.90
21561;DHT22;10941;53.590;9.960;2022-10-16T09:32:45;16.60;99.90
21561;DHT22;10941;53.590;9.960;2022-10-16T09:35:22;16.60;99.90
21561;DHT22;10941;53.590;9.960;2022-10-16T09:37:50;16.70;99.90
21561;DHT22;10941;53.590;9.960;2022-10-16T09:40:26;16.80;99.90
21561;DHT22;10941;53.590;9.960;2022-10-16T09:43:12;16.90;99.90
21561;DHT22;10941;53.590;9.960;2022-10-16T09:45:41;16.90;99.90
21561;DHT22;10941;53.590;9.960;2022-10-16T09:48:10;17.00;99.90
21561;DHT22;10941;53.590;9.960;2022-10-16T09:50:36;17.10;99.90
21561;DHT22;10941;53.590;9.960;2022-10-16T09:53:03;17.20;99.90
21561;DHT22;10941;53.590;9.960;2022-10-16T09:55:29;17.20;99.90
21561;DHT22;10941;53.590;9.960;2022-10-16T09:57:55;17.30;99.90
21561;DHT22;10941;53.590;9.960;2022-10-16T10:00:22;17.30;99.90
21561;DHT22;10941;53.590;9.960;2022-10-16T10:02:47;17.40;99.90
21561;DHT22;10941;53.590;9.960;2022-10-16T10:05:17;17.50;99.90
21561;DHT22;10941;53.590;9.960;2022-10-16T10:07:43;17.50;99.90
21561;DHT22;10941;53.590;9.960;2022-10-16T10:10:27;17.50;99.90
21561;DHT22;10941;53.590;9.960;2022-10-16T10:12:53;17.60;99.90
21561;DHT22;10941;53.590;9.960;2022-10-16T10:15:20;17.60;99.90
21561;DHT22;10941;53.590;9.960;2022-10-16T10:17:48;17.60;99.90
21561;DHT22;10941;53.590;9.960;2022-10-16T10:20:35;17.60;99.90
21561;DHT22;10941;53.590;9.960;2022-10-16T10:23:01;17.60;99.90
21561;DHT22;10941;53.590;9.960;2022-10-16T10:25:52;17.70;99.90
21561;DHT22;10941;53.590;9.960;2022-10-16T10:30:56;17.60;99.90
21561;DHT22;10941;53.590;9.960;2022-10-16T10:54:41;17.50;99.90
21561;DHT22;10941;53.590;9.960;2022-10-16T10:57:07;17.60;99.90
21561;DHT22;10941;53.590;9.960;2022-10-16T11:05:12;17.50;99.90
21561;DHT22;10941;53.590;9.960;2022-10-16T11:07:44;17.50;99.90
21561;DHT22;10941;53.590;9.960;2022-10-16T11:10:18;17.50;99.90
21561;DHT22;10941;53.590;9.960;2022-10-16T11:12:47;17.50;99.90
21561;DHT22;10941;53.590;9.960;2022-10-16T11:15:27;17.50;99.90
21561;DHT22;10941;53.590;9.960;2022-10-16T11:17:59;17.50;99.90
21561;DHT22;10941;53.590;9.960;2022-10-16T11:20:26;17.50;99.90
21561;DHT22;10941;53.590;9.960;2022-10-16T11:25:23;17.40;99.90
21561;DHT22;10941;53.590;9.960;2022-10-16T11:27:55;17.40;99.90
21561;DHT22;10941;53.590;9.960;2022-10-16T11:30:24;17.40;99.90
21561;DHT22;10941;53.590;9.960;2022-10-16T11:32:52;17.30;99.90
21561;DHT22;10941;53.590;9.960;2022-10-16T11:35:25;17.30;99.90
21561;DHT22;10941;53.590;9.960;2022-10-16T11:37:53;17.30;99.90
21561;DHT22;10941;53.590;9.960;2022-10-16T11:40:23;17.30;99.90
21561;DHT22;10941;53.590;9.960;2022-10-16T11:42:55;17.30;99.90
21561;DHT22;10941;53.590;9.960;2022-10-16T11:45:26;17.30;99.90
21561;DHT22;10941;53.590;9.960;2022-10-16T11:48:00;17.30;99.90
21561;DHT22;10941;53.590;9.960;2022-10-16T11:50:36;17.30;99.90
21561;DHT22;10941;53.590;9.960;2022-10-16T11:53:18;17.30;99.90
21561;DHT22;10941;53.590;9.960;2022-10-16T11:55:47;17.30;99.90
21561;DHT22;10941;53.590;9.960;2022-10-16T11:58:27;17.30;99.90
21561;DHT22;10941;53.590;9.960;2022-10-16T12:03:23;17.30;99.90
21561;DHT22;10941;53.590;9.960;2022-10-16T12:08:36;17.20;99.90
21561;DHT22;10941;53.590;9.960;2022-10-16T12:13:44;17.20;99.90
21561;DHT22;10941;53.590;9.960;2022-10-16T12:18:39;17.10;99.90
21561;DHT22;10941;53.590;9.960;2022-10-16T12:21:06;17.10;99.90
21561;DHT22;10941;53.590;9.960;2022-10-16T12:23:33;17.10;99.90
21561;DHT22;10941;53.590;9.960;2022-10-16T12:26:03;17.20;99.90
21561;DHT22;10941;53.590;9.960;2022-10-16T12:28:30;17.20;99.90
21561;DHT22;10941;53.590;9.960;2022-10-16T12:33:29;17.20;99.90
21561;DHT22;10941;53.590;9.960;2022-10-16T12:35:55;17.20;99.90
21561;DHT22;10941;53.590;9.960;2022-10-16T12:38:25;17.20;99.90
21561;DHT22;10941;53.590;9.960;2022-10-16T12:41:02;17.20;99.90
21561;DHT22;10941;53.590;9.960;2022-10-16T12:43:35;17.10;99.90
21561;DHT22;10941;53.590;9.960;2022-10-16T12:48:33;17.10;99.90
21561;DHT22;10941;53.590;9.960;2022-10-16T12:51:09;17.10;99.90
21561;DHT22;10941;53.590;9.960;2022-10-16T12:53:35;17.10;99.90
21561;DHT22;10941;53.590;9.960;2022-10-16T12:56:03;17.10;99.90
21561;DHT22;10941;53.590;9.960;2022-10-16T13:01:11;17.10;99.90
21561;DHT22;10941;53.590;9.960;2022-10-16T13:03:48;17.10;99.90
21561;DHT22;10941;53.590;9.960;2022-10-16T13:06:27;17.10;99.90
21561;DHT22;10941;53.590;9.960;2022-10-16T13:09:13;17.10;99.90
21561;DHT22;10941;53.590;9.960;2022-10-16T13:26:41;17.20;99.90
21561;DHT22;10941;53.590;9.960;2022-10-16T13:29:10;17.20;99.90
21561;DHT22;10941;53.590;9.960;2022-10-16T13:31:37;17.20;99.90
21561;DHT22;10941;53.590;9.960;2022-10-16T13:34:03;17.20;99.90
21561;DHT22;10941;53.590;9.960;2022-10-16T13:36:35;17.20;99.90
21561;DHT22;10941;53.590;9.960;2022-10-16T13:39:14;17.10;99.90
21561;DHT22;10941;53.590;9.960;2022-10-16T13:41:41;17.10;99.90
21561;DHT22;10941;53.590;9.960;2022-10-16T13:44:11;17.10;99.90
21561;DHT22;10941;53.590;9.960;2022-10-16T13:46:38;17.10;99.90
21561;DHT22;10941;53.590;9.960;2022-10-16T13:49:05;17.10;99.90
21561;DHT22;10941;53.590;9.960;2022-10-16T13:51:30;17.10;99.90
21561;DHT22;10941;53.590;9.960;2022-10-16T13:53:57;17.00;99.90
21561;DHT22;10941;53.590;9.960;2022-10-16T13:56:25;17.00;99.90
21561;DHT22;10941;53.590;9.960;2022-10-16T13:59:03;17.00;99.90
21561;DHT22;10941;53.590;9.960;2022-10-16T14:01:29;17.00;99.90
21561;DHT22;10941;53.590;9.960;2022-10-16T14:04:06;17.00;99.90
21561;DHT22;10941;53.590;9.960;2022-10-16T14:06:33;16.90;99.90
21561;DHT22;10941;53.590;9.960;2022-10-16T14:09:07;16.90;99.90
21561;DHT22;10941;53.590;9.960;2022-10-16T14:11:34;16.90;99.90
21561;DHT22;10941;53.590;9.960;2022-10-16T14:14:02;17.00;99.90
21561;DHT22;10941;53.590;9.960;2022-10-16T14:16:29;16.90;99.90
21561;DHT22;10941;53.590;9.960;2022-10-16T14:18:56;16.90;99.90
21561;DHT22;10941;53.590;9.960;2022-10-16T14:21:22;17.00;99.90
21561;DHT22;10941;53.590;9.960;2022-10-16T14:23:48;17.00;99.90
21561;DHT22;10941;53.590;9.960;2022-10-16T14:26:14;17.00;99.90
21561;DHT22;10941;53.590;9.960;2022-10-16T14:28:40;17.00;99.90
21561;DHT22;10941;53.590;9.960;2022-10-16T14:33:44;17.00;99.90
21561;DHT22;10941;53.590;9.960;2022-10-16T14:38:36;17.00;99.90
21561;DHT22;10941;53.590;9.960;2022-10-16T14:41:03;17.00;99.90
21561;DHT22;10941;53.590;9.960;2022-10-16T14:43:32;17.00;99.90
21561;DHT22;10941;53.590;9.960;2022-10-16T14:45:59;17.10;99.90
21561;DHT22;10941;53.590;9.960;2022-10-16T14:48:26;17.00;99.90
21561;DHT22;10941;53.590;9.960;2022-10-16T14:50:52;17.00;99.90
21561;DHT22;10941;53.590;9.960;2022-10-16T14:53:18;17.00;99.90
21561;DHT22;10941;53.590;9.960;2022-10-16T14:55:43;17.00;99.90
21561;DHT22;10941;53.590;9.960;2022-10-16T14:58:20;17.00;99.90
21561;DHT22;10941;53.590;9.960;2022-10-16T15:00:46;17.00;99.90
21561;DHT22;10941;53.590;9.960;2022-10-16T15:03:12;17.00;99.90
21561;DHT22;10941;53.590;9.960;2022-10-16T15:05:37;17.00;99.90
21561;DHT22;10941;53.590;9.960;2022-10-16T15:08:03;17.00;99.90
21561;DHT22;10941;53.590;9.960;2022-10-16T15:10:30;17.00;99.90
21561;DHT22;10941;53.590;9.960;2022-10-16T15:12:56;17.00;99.90
21561;DHT22;10941;53.590;9.960;2022-10-16T15:15:24;17.00;99.90
21561;DHT22;10941;53.590;9.960;2022-10-16T15:17:51;17.00;99.90
21561;DHT22;10941;53.590;9.960;2022-10-16T15:20:35;17.00;99.90
21561;DHT22;10941;53.590;9.960;2022-10-16T15:23:02;17.00;99.90
21561;DHT22;10941;53.590;9.960;2022-10-16T15:27:59;16.90;99.90
21561;DHT22;10941;53.590;9.960;2022-10-16T15:30:25;16.80;99.90
21561;DHT22;10941;53.590;9.960;2022-10-16T15:32:51;16.80;99.90
21561;DHT22;10941;53.590;9.960;2022-10-16T15:35:17;16.80;99.90
21561;DHT22;10941;53.590;9.960;2022-10-16T15:37:43;16.70;99.90
21561;DHT22;10941;53.590;9.960;2022-10-16T15:40:09;16.80;99.90
21561;DHT22;10941;53.590;9.960;2022-10-16T15:42:35;16.70;99.90
21561;DHT22;10941;53.590;9.960;2022-10-16T15:45:00;16.70;99.90
21561;DHT22;10941;53.590;9.960;2022-10-16T15:47:26;16.70;99.90
21561;DHT22;10941;53.590;9.960;2022-10-16T15:49:52;16.70;99.90
21561;DHT22;10941;53.590;9.960;2022-10-16T15:52:17;16.60;99.90
21561;DHT22;10941;53.590;9.960;2022-10-16T15:54:43;16.60;99.90
21561;DHT22;10941;53.590;9.960;2022-10-16T15:57:09;16.60;99.90
21561;DHT22;10941;53.590;9.960;2022-10-16T15:59:34;16.60;99.90
21561;DHT22;10941;53.590;9.960;2022-10-16T16:02:00;16.50;99.90
21561;DHT22;10941;53.590;9.960;2022-10-16T16:04:26;16.50;99.90
21561;DHT22;10941;53.590;9.960;2022-10-16T16:06:51;16.50;99.90
21561;DHT22;10941;53.590;9.960;2022-10-16T16:09:17;16.50;99.90
21561;DHT22;10941;53.590;9.960;2022-10-16T16:11:42;16.40;99.90
21561;DHT22;10941;53.590;9.960;2022-10-16T16:14:11;16.40;99.90
21561;DHT22;10941;53.590;9.960;2022-10-16T16:16:38;16.40;99.90
21561;DHT22;10941;53.590;9.960;2022-10-16T16:19:04;16.40;99.90
21561;DHT22;10941;53.590;9.960;2022-10-16T16:21:31;16.30;99.90
21561;DHT22;10941;53.590;9.960;2022-10-16T16:23:57;16.30;99.90
21561;DHT22;10941;53.590;9.960;2022-10-16T16:26:24;16.30;99.90
21561;DHT22;10941;53.590;9.960;2022-10-16T16:28:51;16.20;99.90
21561;DHT22;10941;53.590;9.960;2022-10-16T16:31:17;16.20;99.90
21561;DHT22;10941;53.590;9.960;2022-10-16T16:33:43;16.20;99.90
21561;DHT22;10941;53.590;9.960;2022-10-16T16:36:09;16.20;99.90
21561;DHT22;10941;53.590;9.960;2022-10-16T16:38:35;16.10;99.90
21561;DHT22;10941;53.590;9.960;2022-10-16T16:41:14;16.10;99.90
21561;DHT22;10941;53.590;9.960;2022-10-16T16:43:40;16.10;99.90
21561;DHT22;10941;53.590;9.960;2022-10-16T16:46:06;16.10;99.90
21561;DHT22;10941;53.590;9.960;2022-10-16T16:48:31;16.00;99.90
21561;DHT22;10941;53.590;9.960;2022-10-16T16:51:02;16.00;99.90
21561;DHT22;10941;53.590;9.960;2022-10-16T16:53:27;16.00;99.90
21561;DHT22;10941;53.590;9.960;2022-10-16T16:55:53;16.00;99.90
21561;DHT22;10941;53.590;9.960;2022-10-16T16:58:19;15.90;99.90
21561;DHT22;10941;53.590;9.960;2022-10-16T17:00:45;15.90;99.90
21561;DHT22;10941;53.590;9.960;2022-10-16T17:03:11;15.90;99.90
21561;DHT22;10941;53.590;9.960;2022-10-16T17:05:37;15.90;99.90
21561;DHT22;10941;53.590;9.960;2022-10-16T17:08:05;15.80;99.90
21561;DHT22;10941;53.590;9.960;2022-10-16T17:10:31;15.80;99.90
21561;DHT22;10941;53.590;9.960;2022-10-16T17:12:57;15.80;99.90
21561;DHT22;10941;53.590;9.960;2022-10-16T17:15:23;15.70;99.90